createdAt,value
2019-03-26T00:02:11.713Z,4.10
2019-03-26T00:07:11.791Z,4.33
2019-03-26T00:12:11.880Z,3.70
2019-03-26T00:17:12.063Z,3.83
2019-03-26T00:22:12.145Z,4.57
2019-03-26T00:27:12.242Z,4.17
2019-03-26T00:32:12.436Z,4.70
2019-03-26T00:37:12.521Z,4.10
2019-03-26T00:42:12.615Z,4.20
2019-03-26T00:47:12.715Z,5.53
2019-03-26T00:52:12.827Z,4.00
2019-03-26T00:57:12.911Z,5.40
2019-03-26T01:02:13.003Z,4.80
2019-03-26T01:07:13.157Z,5.00
2019-03-26T01:12:14.216Z,5.40
2019-03-26T01:17:14.295Z,4.50
2019-03-26T01:22:14.401Z,5.03
2019-03-26T01:27:14.550Z,4.90
2019-03-26T01:32:14.619Z,4.50
2019-03-26T01:37:14.711Z,6.47
2019-03-26T01:42:14.806Z,4.73
2019-03-26T01:47:14.898Z,4.77
2019-03-26T01:52:15.083Z,5.03
2019-03-26T01:57:15.204Z,4.87
2019-03-26T02:02:15.349Z,4.93
2019-03-26T02:07:15.443Z,4.80
2019-03-26T02:12:15.539Z,4.40
2019-03-26T02:17:15.838Z,5.37
2019-03-26T02:22:15.951Z,5.30
2019-03-26T02:27:16.025Z,5.13
2019-03-26T02:32:16.200Z,5.43
2019-03-26T02:37:16.281Z,4.90
2019-03-26T02:42:16.387Z,5.00
2019-03-26T02:47:16.501Z,6.10
2019-03-26T02:52:16.644Z,5.20
2019-03-26T02:57:16.723Z,5.77
2019-03-26T03:02:16.823Z,4.00
2019-03-26T03:07:16.900Z,4.83
2019-03-26T03:12:17.003Z,4.33
2019-03-26T03:17:17.090Z,3.70
2019-03-26T03:22:17.176Z,3.70
2019-03-26T03:27:17.339Z,3.73
2019-03-26T03:32:17.437Z,3.33
2019-03-26T03:37:17.505Z,3.60
2019-03-26T03:42:17.686Z,3.70
2019-03-26T03:47:19.409Z,3.87
2019-03-26T03:52:20.466Z,3.03
2019-03-26T03:57:23.495Z,2.83
2019-03-26T04:02:23.589Z,3.43
2019-03-26T04:07:23.736Z,3.80
2019-03-26T04:12:23.827Z,3.50
2019-03-26T04:17:23.919Z,3.80
2019-03-26T04:22:24.003Z,2.83
2019-03-26T04:27:24.099Z,3.17
2019-03-26T04:32:24.205Z,3.80
2019-03-26T04:37:24.264Z,3.50
2019-03-26T04:42:24.352Z,3.93
2019-03-26T04:47:24.434Z,3.40
2019-03-26T04:52:24.519Z,3.23
2019-03-26T04:57:24.590Z,3.90
2019-03-26T05:02:24.694Z,3.53
2019-03-26T05:07:24.787Z,3.57
2019-03-26T05:12:24.863Z,5.63
2019-03-26T05:17:24.951Z,5.10
2019-03-26T05:22:25.037Z,4.77
2019-03-26T05:27:25.135Z,5.40
2019-03-26T05:32:25.257Z,6.40
2019-03-26T05:37:25.346Z,6.43
2019-03-26T05:42:25.459Z,5.83
2019-03-26T05:47:25.539Z,6.17
2019-03-26T05:52:25.622Z,6.47
2019-03-26T05:57:25.703Z,6.60
2019-03-26T06:02:25.810Z,7.33
2019-03-26T06:07:25.891Z,7.90
2019-03-26T06:12:26.007Z,6.70
2019-03-26T06:17:26.118Z,5.30
2019-03-26T06:22:26.228Z,6.27
2019-03-26T06:27:26.292Z,6.00
2019-03-26T06:32:26.389Z,5.77
2019-03-26T06:37:27.447Z,5.37
2019-03-26T06:42:28.545Z,5.33
2019-03-26T06:47:28.698Z,5.80
2019-03-26T06:52:28.820Z,4.70
2019-03-26T06:57:35.457Z,5.20
2019-03-26T07:02:30.702Z,3.27
2019-03-26T07:07:31.979Z,4.83
2019-03-26T07:12:32.359Z,3.50
2019-03-26T07:17:32.464Z,4.67
2019-03-26T07:22:32.526Z,3.20
2019-03-26T07:27:32.627Z,3.60
2019-03-26T07:32:32.706Z,2.80
2019-03-26T07:37:44.657Z,3.37
2019-03-26T07:42:34.562Z,3.27
2019-03-26T07:47:34.654Z,3.00
2019-03-26T07:52:34.872Z,3.30
2019-03-26T07:57:35.062Z,3.30
2019-03-26T08:02:36.944Z,3.60
2019-03-26T08:07:37.270Z,2.17
2019-03-26T08:12:37.373Z,3.33
2019-03-26T08:17:38.903Z,2.80
2019-03-26T08:22:39.154Z,2.10
2019-03-26T08:27:39.373Z,2.30
2019-03-26T08:32:39.463Z,2.40
2019-03-26T08:37:39.559Z,2.60
2019-03-26T08:42:39.710Z,1.70
2019-03-26T08:47:39.824Z,2.57
2019-03-26T08:52:40.063Z,1.33
2019-03-26T08:57:40.262Z,2.57
2019-03-26T09:02:40.399Z,1.83
2019-03-26T09:07:40.500Z,2.10
2019-03-26T09:12:40.612Z,2.10
2019-03-26T09:17:44.122Z,2.40
2019-03-26T09:22:43.505Z,1.90
2019-03-26T09:27:43.597Z,1.57
2019-03-26T09:32:43.757Z,1.67
2019-03-26T09:37:44.012Z,2.20
2019-03-26T09:42:44.418Z,1.70
2019-03-26T09:47:44.692Z,1.60
2019-03-26T09:52:45.178Z,1.00
2019-03-26T09:57:45.270Z,0.93
2019-03-26T10:02:45.365Z,1.70
2019-03-26T10:07:45.474Z,1.23
2019-03-26T10:12:45.669Z,1.70
2019-03-26T10:17:45.770Z,1.20
2019-03-26T10:22:45.858Z,1.57
2019-03-26T10:27:46.244Z,1.43
2019-03-26T10:32:46.467Z,1.30
2019-03-26T10:37:46.632Z,0.90
2019-03-26T10:42:47.168Z,3.00
2019-03-26T10:47:47.259Z,2.07
2019-03-26T10:52:47.345Z,1.47
2019-03-26T10:57:47.467Z,2.20
2019-03-26T11:02:47.621Z,1.97
2019-03-26T11:07:48.677Z,2.90
2019-03-26T11:12:48.783Z,1.50
2019-03-26T11:17:48.896Z,1.47
2019-03-26T11:22:49.075Z,1.87
2019-03-26T11:27:49.252Z,1.33
2019-03-26T11:32:49.434Z,2.63
2019-03-26T11:37:49.691Z,1.77
2019-03-26T11:42:49.806Z,2.10
2019-03-26T11:47:51.038Z,2.10
2019-03-26T11:52:51.635Z,1.90
2019-03-26T11:57:51.735Z,2.13
2019-03-26T12:02:51.813Z,2.50
2019-03-26T12:07:51.911Z,2.27
2019-03-26T12:12:52.014Z,2.63
2019-03-26T12:17:52.105Z,2.23
2019-03-26T12:22:52.194Z,2.53
2019-03-26T12:27:52.275Z,2.20
2019-03-26T12:32:52.388Z,2.17
2019-03-26T12:37:52.515Z,2.53
2019-03-26T12:42:53.706Z,2.80
2019-03-26T12:47:53.818Z,2.63
2019-03-26T12:52:53.898Z,2.87
2019-03-26T12:57:54.010Z,1.90
2019-03-26T13:02:54.096Z,2.30
2019-03-26T13:07:54.167Z,1.70
2019-03-26T13:12:54.270Z,1.87
2019-03-26T13:17:54.341Z,1.60
2019-03-26T13:22:54.439Z,1.60
2019-03-26T13:27:54.515Z,1.83
2019-03-26T13:32:54.616Z,2.40
2019-03-26T13:37:54.705Z,2.10
2019-03-26T13:42:54.790Z,2.20
2019-03-26T13:47:54.867Z,1.77
2019-03-26T13:52:55.034Z,2.40
2019-03-26T13:57:55.123Z,1.73
2019-03-26T14:02:55.203Z,1.90
2019-03-26T14:07:55.379Z,2.00
2019-03-26T14:12:55.466Z,1.60
2019-03-26T14:17:55.622Z,1.97
2019-03-26T14:22:55.808Z,1.67
2019-03-26T14:27:55.894Z,1.63
2019-03-26T14:32:55.982Z,1.70
2019-03-26T14:37:56.063Z,2.53
2019-03-26T14:42:56.149Z,1.40
2019-03-26T14:47:56.238Z,1.80
2019-03-26T14:52:56.327Z,1.40
2019-03-26T14:57:56.427Z,1.87
2019-03-26T15:02:56.547Z,1.80
2019-03-26T15:07:56.630Z,1.93
2019-03-26T15:12:56.862Z,1.50
2019-03-26T15:17:57.040Z,1.43
2019-03-26T15:22:58.265Z,2.27
2019-03-26T15:27:57.791Z,1.27
2019-03-26T15:32:57.786Z,1.20
2019-03-26T15:37:57.895Z,1.30
2019-03-26T15:42:59.207Z,1.43
2019-03-26T15:47:59.371Z,1.50
2019-03-26T15:52:59.511Z,1.30
2019-03-26T15:57:59.992Z,1.63
2019-03-26T16:03:00.343Z,1.43
2019-03-26T16:08:02.404Z,1.57
2019-03-26T16:13:02.589Z,0.97
2019-03-26T16:18:02.698Z,1.80
2019-03-26T16:23:02.875Z,1.80
2019-03-26T16:28:03.074Z,1.30
2019-03-26T16:33:04.156Z,1.77
2019-03-26T16:38:04.320Z,1.20
2019-03-26T16:43:04.568Z,1.63
2019-03-26T16:48:04.818Z,1.37
2019-03-26T16:53:05.011Z,1.43
2019-03-26T16:58:05.231Z,2.60
2019-03-26T17:03:05.737Z,1.77
2019-03-26T17:08:06.135Z,3.60
2019-03-26T17:13:06.307Z,1.10
2019-03-26T17:18:06.478Z,1.90
2019-03-26T17:23:06.648Z,1.63
2019-03-26T17:28:06.770Z,1.20
2019-03-26T17:33:06.922Z,1.30
2019-03-26T17:38:07.246Z,1.53
2019-03-26T17:43:07.394Z,1.77
2019-03-26T17:48:07.519Z,1.83
2019-03-26T17:53:07.719Z,1.63
2019-03-26T17:58:07.833Z,1.60
2019-03-26T18:03:08.037Z,1.93
2019-03-26T18:08:08.217Z,2.03
2019-03-26T18:13:08.310Z,1.40
2019-03-26T18:18:08.502Z,1.63
2019-03-26T18:23:08.582Z,3.23
2019-03-26T18:28:08.786Z,1.80
2019-03-26T18:33:08.922Z,1.50
2019-03-26T18:38:09.095Z,1.63
2019-03-26T18:43:09.218Z,2.53
2019-03-26T18:48:09.378Z,1.60
2019-03-26T18:53:09.474Z,1.70
2019-03-26T18:58:09.598Z,1.40
2019-03-26T19:03:09.816Z,3.10
2019-03-26T19:08:10.007Z,2.30
2019-03-26T19:13:19.145Z,1.30
2019-03-26T19:18:11.971Z,1.53
2019-03-26T19:23:12.065Z,1.90
2019-03-26T19:28:12.253Z,1.83
2019-03-26T19:33:12.331Z,1.83
2019-03-26T19:38:12.423Z,1.67
2019-03-26T19:43:12.513Z,2.00
2019-03-26T19:48:12.710Z,1.50
2019-03-26T19:53:12.810Z,1.70
2019-03-26T19:58:12.889Z,1.80
2019-03-26T20:03:14.778Z,3.70
2019-03-26T20:08:14.889Z,2.80
2019-03-26T20:13:24.447Z,2.03
2019-03-26T20:18:19.908Z,2.23
2019-03-26T20:23:24.378Z,1.40
2019-03-26T20:28:26.912Z,1.27
2019-03-26T20:33:29.560Z,1.53
2019-03-26T20:38:31.862Z,2.33
2019-03-26T20:43:37.443Z,1.37
2019-03-26T20:48:38.177Z,1.30
2019-03-26T20:53:39.912Z,1.17
2019-03-26T20:58:42.672Z,1.50
2019-03-26T21:03:42.850Z,2.10
2019-03-26T21:08:42.941Z,1.20
2019-03-26T21:13:50.649Z,1.70
2019-03-26T21:18:45.419Z,1.90
2019-03-26T21:23:46.015Z,1.47
2019-03-26T21:28:47.975Z,1.50
2019-03-26T21:33:49.975Z,1.87
2019-03-26T21:38:53.622Z,1.97
2019-03-26T21:44:04.267Z,1.57
2019-03-26T21:49:00.445Z,2.47
2019-03-26T21:54:02.535Z,2.07
2019-03-26T21:59:06.421Z,2.00
2019-03-26T22:04:08.358Z,1.30
2019-03-26T22:09:10.086Z,1.40
2019-03-26T22:14:17.739Z,2.23
2019-03-26T22:19:12.887Z,2.43
2019-03-26T22:24:13.122Z,1.97
2019-03-26T22:29:13.827Z,1.93
2019-03-26T22:34:13.978Z,1.70
2019-03-26T22:39:14.382Z,2.77
2019-03-26T22:44:14.980Z,2.03
2019-03-26T22:49:15.100Z,2.00
2019-03-26T22:54:15.831Z,1.97
2019-03-26T22:59:16.029Z,1.70
2019-03-26T23:04:16.149Z,2.43
2019-03-26T23:09:16.226Z,1.80
2019-03-26T23:14:16.686Z,1.70
2019-03-26T23:19:16.784Z,2.23
2019-03-26T23:24:16.882Z,1.97
2019-03-26T23:29:16.962Z,2.33
2019-03-26T23:34:17.161Z,1.93
2019-03-26T23:39:17.246Z,1.90
2019-03-26T23:44:25.808Z,2.07
2019-03-26T23:49:19.118Z,1.63
2019-03-26T23:54:19.283Z,1.97
2019-03-26T23:59:19.376Z,2.10
